createdAt,value
2023-02-11T00:01:31.608Z,16.23
2023-02-11T00:04:00.137Z,15.33
2023-02-11T00:06:30.592Z,15.83
2023-02-11T00:08:58.196Z,14.48
2023-02-11T00:11:30.441Z,14.70
2023-02-11T00:14:00.625Z,15.23
2023-02-11T00:16:29.522Z,14.43
2023-02-11T00:18:57.249Z,17.10
2023-02-11T00:21:26.758Z,14.77
2023-02-11T00:23:57.110Z,14.23
2023-02-11T00:26:31.461Z,14.30
2023-02-11T00:28:59.521Z,15.30
2023-02-11T00:31:27.833Z,15.33
2023-02-11T00:33:55.738Z,15.97
2023-02-11T00:36:27.801Z,14.43
2023-02-11T00:38:57.164Z,15.83
2023-02-11T00:41:25.152Z,13.70
2023-02-11T00:43:53.183Z,13.93
2023-02-11T00:46:21.391Z,13.67
2023-02-11T00:48:49.339Z,14.43
2023-02-11T00:51:16.520Z,14.23
2023-02-11T00:53:43.914Z,14.47
2023-02-11T00:56:11.250Z,14.63
2023-02-11T00:58:38.658Z,14.47
2023-02-11T01:01:06.459Z,14.00
2023-02-11T01:03:36.130Z,14.83
2023-02-11T01:06:03.510Z,14.80
2023-02-11T01:08:30.986Z,15.07
2023-02-11T01:11:04.525Z,14.37
2023-02-11T01:13:35.735Z,14.93
2023-02-11T01:16:07.361Z,13.23
2023-02-11T01:18:35.018Z,14.13
2023-02-11T01:21:02.267Z,14.27
2023-02-11T01:23:29.471Z,14.43
2023-02-11T01:25:57.439Z,13.37
2023-02-11T01:28:28.760Z,15.33
2023-02-11T01:30:57.105Z,15.00
2023-02-11T01:33:24.934Z,17.83
2023-02-11T01:35:52.635Z,16.53
2023-02-11T01:38:24.928Z,14.97
2023-02-11T01:40:57.281Z,14.70
2023-02-11T01:43:26.635Z,15.70
2023-02-11T01:46:02.026Z,15.43
2023-02-11T01:48:38.259Z,15.17
2023-02-11T01:51:22.199Z,14.83
2023-02-11T01:54:09.628Z,14.50
2023-02-11T01:57:01.306Z,13.97
2023-02-11T01:59:41.083Z,12.63
2023-02-11T02:02:12.759Z,15.37
2023-02-11T02:04:55.385Z,13.77
2023-02-11T02:07:49.619Z,13.83
2023-02-11T02:10:23.113Z,14.93
2023-02-11T02:12:50.447Z,14.03
2023-02-11T02:15:29.922Z,14.30
2023-02-11T02:18:09.809Z,15.07
2023-02-11T02:21:13.869Z,14.73
2023-02-11T02:23:52.480Z,14.53
2023-02-11T02:27:04.477Z,13.73
2023-02-11T02:30:32.312Z,13.33
2023-02-11T02:33:21.635Z,14.53
2023-02-11T02:36:24.033Z,13.80
2023-02-11T02:39:29.503Z,13.43
2023-02-11T02:41:57.288Z,14.73
2023-02-11T02:44:24.770Z,15.13
2023-02-11T02:46:52.295Z,16.27
2023-02-11T02:49:19.517Z,14.53
2023-02-11T02:52:31.105Z,13.73
2023-02-11T02:55:04.728Z,13.83
2023-02-11T02:58:00.520Z,14.07
2023-02-11T03:00:41.924Z,14.27
2023-02-11T03:03:57.632Z,13.57
2023-02-11T03:06:46.745Z,13.70
2023-02-11T03:09:30.170Z,13.80
2023-02-11T03:11:57.580Z,13.13
2023-02-11T03:14:27.878Z,14.03
2023-02-11T03:16:59.373Z,13.60
2023-02-11T03:19:44.562Z,13.57
2023-02-11T03:22:26.512Z,13.53
2023-02-11T03:24:56.216Z,12.73
2023-02-11T03:28:13.947Z,13.03
2023-02-11T03:31:00.066Z,12.20
2023-02-11T03:33:48.198Z,12.87
2023-02-11T03:36:26.848Z,12.77
2023-02-11T03:38:59.920Z,13.87
2023-02-11T03:41:27.660Z,12.83
2023-02-11T03:43:58.336Z,12.30
2023-02-11T03:49:11.266Z,12.50
2023-02-11T03:51:39.252Z,12.83
2023-02-11T03:54:14.742Z,12.93
2023-02-11T03:56:56.951Z,11.60
2023-02-11T03:59:24.647Z,13.73
2023-02-11T04:01:52.608Z,12.37
2023-02-11T04:04:20.338Z,11.17
2023-02-11T04:06:47.669Z,10.93
2023-02-11T04:09:15.545Z,9.93
2023-02-11T04:11:42.795Z,9.67
2023-02-11T04:14:09.989Z,10.13
2023-02-11T04:16:37.454Z,11.20
2023-02-11T04:19:05.138Z,12.57
2023-02-11T04:21:32.421Z,13.40
2023-02-11T04:23:59.675Z,12.40
2023-02-11T04:26:26.932Z,15.80
2023-02-11T04:28:54.072Z,14.37
2023-02-11T04:31:21.396Z,13.07
2023-02-11T04:33:48.682Z,14.47
2023-02-11T04:36:15.891Z,10.70
2023-02-11T04:38:43.145Z,12.43
2023-02-11T04:41:10.283Z,12.40
2023-02-11T04:43:37.480Z,9.03
2023-02-11T04:46:04.862Z,8.17
2023-02-11T04:48:32.237Z,6.90
2023-02-11T04:50:59.516Z,7.33
2023-02-11T04:53:26.851Z,7.37
2023-02-11T04:55:54.214Z,6.57
2023-02-11T04:58:21.826Z,7.67
2023-02-11T05:00:49.095Z,6.47
2023-02-11T05:03:17.195Z,7.40
2023-02-11T05:05:44.628Z,6.80
2023-02-11T05:08:12.660Z,7.23
2023-02-11T05:10:39.974Z,6.33
2023-02-11T05:13:07.163Z,7.13
2023-02-11T05:15:34.597Z,7.20
2023-02-11T05:18:01.905Z,6.30
2023-02-11T05:20:29.406Z,6.83
2023-02-11T05:22:56.767Z,7.57
2023-02-11T05:25:24.034Z,7.37
2023-02-11T05:27:51.270Z,7.07
2023-02-11T05:30:18.605Z,7.40
2023-02-11T05:32:45.844Z,7.63
2023-02-11T05:35:12.976Z,7.63
2023-02-11T05:37:40.274Z,8.30
2023-02-11T05:40:08.200Z,7.70
2023-02-11T05:42:35.634Z,7.57
2023-02-11T05:45:02.956Z,6.83
2023-02-11T05:47:30.300Z,7.63
2023-02-11T05:49:57.481Z,8.03
2023-02-11T05:52:25.113Z,8.57
2023-02-11T05:54:52.335Z,8.93
2023-02-11T05:57:20.279Z,8.83
2023-02-11T05:59:47.575Z,7.87
2023-02-11T06:02:14.865Z,8.30
2023-02-11T06:04:42.269Z,9.00
2023-02-11T06:07:09.463Z,8.90
2023-02-11T06:09:37.877Z,8.60
2023-02-11T06:12:05.476Z,8.37
2023-02-11T06:14:34.389Z,7.93
2023-02-11T06:17:02.084Z,9.60
2023-02-11T06:19:29.418Z,8.47
2023-02-11T06:21:57.744Z,9.80
2023-02-11T06:24:48.130Z,11.10
2023-02-11T06:27:12.570Z,10.87
2023-02-11T06:29:39.815Z,10.40
2023-02-11T06:32:10.078Z,9.37
2023-02-11T06:34:43.404Z,9.30
2023-02-11T06:37:10.600Z,11.13
2023-02-11T06:39:38.345Z,10.03
2023-02-11T06:42:07.913Z,10.20
2023-02-11T06:44:35.263Z,10.00
2023-02-11T06:47:02.471Z,10.47
2023-02-11T06:49:29.845Z,9.03
2023-02-11T06:51:57.020Z,9.90
2023-02-11T06:54:24.544Z,9.53
2023-02-11T06:56:51.809Z,9.17
2023-02-11T06:59:20.958Z,11.23
2023-02-11T07:01:48.690Z,12.50
2023-02-11T07:04:16.126Z,10.73
2023-02-11T07:06:43.395Z,11.57
2023-02-11T07:09:10.753Z,9.83
2023-02-11T07:11:37.913Z,9.50
2023-02-11T07:14:08.680Z,11.97
2023-02-11T07:19:03.728Z,13.80
2023-02-11T07:21:31.223Z,12.00
2023-02-11T07:23:58.495Z,14.00
2023-02-11T07:26:29.229Z,11.60
2023-02-11T07:31:27.249Z,10.80
2023-02-11T07:33:58.032Z,10.57
2023-02-11T07:36:25.971Z,10.57
2023-02-11T07:38:53.323Z,9.37
2023-02-11T07:41:23.467Z,10.70
2023-02-11T07:43:52.888Z,10.63
2023-02-11T07:46:23.488Z,9.40
2023-02-11T07:48:51.058Z,9.07
2023-02-11T07:51:30.829Z,9.73
2023-02-11T07:54:00.441Z,9.07
2023-02-11T07:56:28.988Z,8.73
2023-02-11T07:58:59.893Z,9.43
2023-02-11T08:01:28.564Z,9.93
2023-02-11T08:03:58.611Z,9.55
2023-02-11T08:06:29.587Z,10.85
2023-02-11T08:08:57.184Z,12.20
2023-02-11T08:11:28.256Z,13.40
2023-02-11T08:13:56.919Z,13.27
2023-02-11T08:16:33.024Z,16.00
2023-02-11T08:19:04.633Z,12.27
2023-02-11T08:21:32.061Z,12.40
2023-02-11T08:23:59.364Z,10.27
2023-02-11T08:26:29.923Z,10.70
2023-02-11T08:28:58.988Z,10.48
2023-02-11T08:31:34.921Z,13.13
2023-02-11T08:34:02.647Z,9.90
2023-02-11T08:36:34.410Z,10.57
2023-02-11T08:39:18.161Z,10.43
2023-02-11T08:41:49.172Z,10.60
2023-02-11T08:44:18.687Z,10.80
2023-02-11T08:46:46.406Z,10.38
2023-02-11T08:49:14.302Z,11.80
2023-02-11T08:51:41.648Z,11.43
2023-02-11T08:54:10.134Z,10.35
2023-02-11T08:56:38.810Z,11.32
2023-02-11T08:59:07.147Z,10.68
2023-02-11T09:01:35.621Z,11.05
2023-02-11T09:04:03.054Z,9.63
2023-02-11T09:06:30.630Z,9.65
2023-02-11T09:08:58.533Z,10.10
2023-02-11T09:11:34.541Z,10.50
2023-02-11T09:14:04.001Z,10.15
2023-02-11T09:16:36.387Z,11.80
2023-02-11T09:19:06.111Z,12.05
2023-02-11T09:21:33.506Z,15.75
2023-02-11T09:24:00.986Z,12.02
2023-02-11T09:26:31.548Z,11.98
2023-02-11T09:29:00.453Z,12.57
2023-02-11T09:31:31.521Z,11.77
2023-02-11T09:34:02.920Z,11.98
2023-02-11T09:36:35.304Z,11.00
2023-02-11T09:39:04.985Z,12.68
2023-02-11T09:41:59.313Z,11.50
2023-02-11T09:44:32.458Z,11.45
2023-02-11T09:47:16.212Z,11.25
2023-02-11T09:49:50.185Z,11.15
2023-02-11T09:52:36.502Z,10.35
2023-02-11T09:55:21.150Z,11.07
2023-02-11T09:57:48.815Z,11.07
2023-02-11T10:01:12.311Z,10.50
2023-02-11T10:03:46.288Z,11.93
2023-02-11T10:06:41.059Z,11.68
2023-02-11T10:09:55.629Z,10.25
2023-02-11T10:12:44.381Z,11.07
2023-02-11T10:15:31.090Z,11.00
2023-02-11T10:18:33.928Z,10.90
2023-02-11T10:21:32.933Z,12.45
2023-02-11T10:24:10.042Z,12.50
2023-02-11T10:26:39.897Z,12.98
2023-02-11T10:29:31.035Z,13.03
2023-02-11T10:32:01.003Z,11.75
2023-02-11T10:34:28.230Z,11.00
2023-02-11T10:36:55.437Z,11.63
2023-02-11T10:39:27.082Z,13.13
2023-02-11T10:42:06.847Z,11.93
2023-02-11T10:44:41.875Z,12.93
2023-02-11T10:47:22.226Z,13.77
2023-02-11T10:49:50.076Z,13.40
2023-02-11T10:52:30.679Z,11.95
2023-02-11T10:55:21.916Z,14.20
2023-02-11T10:58:03.021Z,12.25
2023-02-11T11:00:43.803Z,14.20
2023-02-11T11:05:57.386Z,11.70
2023-02-11T11:08:47.598Z,12.68
2023-02-11T11:11:23.847Z,13.32
2023-02-11T11:13:58.176Z,12.68
2023-02-11T11:16:35.988Z,14.30
2023-02-11T11:19:09.337Z,13.35
2023-02-11T11:21:55.156Z,13.27
2023-02-11T11:24:45.335Z,13.75
2023-02-11T11:27:33.137Z,14.15
2023-02-11T11:30:02.347Z,15.10
2023-02-11T11:32:33.511Z,12.13
2023-02-11T11:35:10.219Z,13.38
2023-02-11T11:37:38.942Z,13.73
2023-02-11T11:40:13.848Z,12.65
2023-02-11T11:42:41.733Z,12.00
2023-02-11T11:45:21.006Z,13.43
2023-02-11T11:48:12.785Z,11.98
2023-02-11T11:50:58.141Z,12.48
2023-02-11T11:53:46.303Z,11.82
2023-02-11T11:56:27.007Z,12.20
2023-02-11T11:58:54.709Z,11.55
2023-02-11T12:02:18.123Z,10.63
2023-02-11T12:05:14.824Z,10.93
2023-02-11T12:08:17.327Z,13.50
2023-02-11T12:11:34.756Z,12.55
2023-02-11T12:14:35.297Z,11.85
2023-02-11T12:17:38.355Z,11.50
2023-02-11T12:20:43.680Z,11.13
2023-02-11T12:23:32.381Z,11.70
2023-02-11T12:26:23.916Z,11.82
2023-02-11T12:29:10.195Z,10.55
2023-02-11T12:32:08.456Z,11.20
2023-02-11T12:35:18.013Z,10.77
2023-02-11T12:37:59.946Z,11.90
2023-02-11T12:40:39.575Z,11.57
2023-02-11T12:43:21.423Z,12.15
2023-02-11T12:46:22.664Z,11.82
2023-02-11T12:49:05.100Z,11.48
2023-02-11T12:52:10.509Z,9.98
2023-02-11T12:54:52.201Z,10.60
2023-02-11T12:57:28.305Z,11.27
2023-02-11T13:00:04.943Z,11.02
2023-02-11T13:03:03.812Z,10.15
2023-02-11T13:06:14.041Z,10.48
2023-02-11T13:08:48.591Z,10.57
2023-02-11T13:11:39.868Z,12.07
2023-02-11T13:14:32.915Z,10.93
2023-02-11T13:17:00.380Z,10.90
2023-02-11T13:19:48.635Z,11.93
2023-02-11T13:22:44.771Z,11.18
2023-02-11T13:26:06.855Z,11.35
2023-02-11T13:28:53.795Z,11.85
2023-02-11T13:31:21.266Z,11.13
2023-02-11T13:33:49.997Z,11.05
2023-02-11T13:36:38.632Z,12.02
2023-02-11T13:39:07.973Z,12.02
2023-02-11T13:41:41.443Z,11.85
2023-02-11T13:44:11.682Z,12.43
2023-02-11T13:46:57.303Z,14.80
2023-02-11T13:49:32.295Z,14.60
2023-02-11T13:52:01.963Z,23.25
2023-02-11T13:54:35.452Z,13.30
2023-02-11T13:57:37.366Z,13.70
2023-02-11T14:00:33.814Z,15.90
2023-02-11T14:03:32.349Z,16.33
2023-02-11T14:06:56.390Z,14.82
2023-02-11T14:09:23.517Z,13.95
2023-02-11T14:12:14.528Z,14.73
2023-02-11T14:15:04.804Z,13.48
2023-02-11T14:17:35.301Z,12.85
2023-02-11T14:20:24.829Z,14.63
2023-02-11T14:22:54.325Z,14.02
2023-02-11T14:25:26.331Z,13.70
2023-02-11T14:28:26.121Z,14.10
2023-02-11T14:31:24.350Z,13.20
2023-02-11T14:34:27.243Z,14.75
2023-02-11T14:37:50.977Z,16.33
2023-02-11T14:40:31.908Z,15.02
2023-02-11T14:45:37.062Z,14.35
2023-02-11T14:48:14.915Z,11.40
2023-02-11T14:50:47.317Z,12.48
2023-02-11T14:53:19.696Z,13.43
2023-02-11T14:55:52.518Z,12.07
2023-02-11T14:58:29.604Z,13.25
2023-02-11T15:01:30.212Z,12.73
2023-02-11T15:03:59.526Z,11.93
2023-02-11T15:06:39.388Z,13.38
2023-02-11T15:09:19.315Z,11.80
2023-02-11T15:11:49.424Z,12.30
2023-02-11T15:14:25.874Z,12.95
2023-02-11T15:17:01.292Z,13.27
2023-02-11T15:19:41.367Z,13.38
2023-02-11T15:22:25.677Z,13.02
2023-02-11T15:25:11.048Z,12.52
2023-02-11T15:27:50.272Z,12.32
2023-02-11T15:30:25.112Z,13.00
2023-02-11T15:33:06.930Z,13.63
2023-02-11T15:35:39.921Z,13.13
2023-02-11T15:41:38.596Z,12.25
2023-02-11T15:44:06.157Z,12.90
2023-02-11T15:46:39.592Z,13.15
2023-02-11T15:49:08.672Z,12.35
2023-02-11T15:51:38.706Z,13.35
2023-02-11T15:54:16.323Z,13.23
2023-02-11T15:56:49.552Z,13.13
2023-02-11T16:02:46.661Z,13.07
2023-02-11T16:05:36.846Z,13.38
2023-02-11T16:08:34.701Z,14.80
2023-02-11T16:11:09.196Z,14.27
2023-02-11T16:13:47.546Z,15.95
2023-02-11T16:16:34.949Z,15.63
2023-02-11T16:19:06.186Z,15.60
2023-02-11T16:21:42.484Z,14.88
2023-02-11T16:24:28.123Z,16.13
2023-02-11T16:27:02.219Z,16.60
2023-02-11T16:29:32.652Z,16.27
2023-02-11T16:32:28.327Z,17.25
2023-02-11T16:35:00.788Z,16.80
2023-02-11T16:37:28.430Z,17.27
2023-02-11T16:39:58.183Z,17.98
2023-02-11T16:42:25.686Z,18.27
2023-02-11T16:44:52.996Z,17.80
2023-02-11T16:47:26.602Z,17.33
2023-02-11T16:49:55.604Z,15.80
2023-02-11T16:52:23.528Z,19.77
2023-02-11T16:54:51.498Z,18.63
2023-02-11T16:57:23.044Z,18.52
2023-02-11T16:59:50.944Z,17.73
2023-02-11T17:02:24.435Z,19.50
2023-02-11T17:04:54.163Z,19.60
2023-02-11T17:07:21.605Z,19.30
2023-02-11T17:09:48.919Z,19.63
2023-02-11T17:12:16.134Z,19.90
2023-02-11T17:14:43.598Z,20.27
2023-02-11T17:17:11.624Z,21.60
2023-02-11T17:19:40.217Z,20.88
2023-02-11T17:22:07.717Z,21.17
2023-02-11T17:24:35.082Z,19.25
2023-02-11T17:27:02.375Z,21.13
2023-02-11T17:29:29.689Z,20.00
2023-02-11T17:31:57.262Z,21.48
2023-02-11T17:34:24.917Z,21.05
2023-02-11T17:36:52.170Z,20.98
2023-02-11T17:39:21.246Z,22.23
2023-02-11T17:41:48.646Z,21.52
2023-02-11T17:44:16.728Z,22.00
2023-02-11T17:46:44.412Z,23.08
2023-02-11T17:49:12.772Z,20.85
2023-02-11T17:51:41.226Z,21.65
2023-02-11T17:54:15.977Z,22.73
2023-02-11T17:56:43.584Z,21.17
2023-02-11T17:59:13.205Z,21.25
2023-02-11T18:01:42.345Z,22.58
2023-02-11T18:04:15.853Z,21.95
2023-02-11T18:06:44.129Z,21.35
2023-02-11T18:09:12.605Z,22.98
2023-02-11T18:11:40.872Z,21.40
2023-02-11T18:14:10.275Z,20.40
2023-02-11T18:16:39.867Z,20.60
2023-02-11T18:19:07.969Z,21.10
2023-02-11T18:21:35.828Z,21.85
2023-02-11T18:24:06.837Z,22.20
2023-02-11T18:26:35.113Z,20.80
2023-02-11T18:29:03.900Z,21.92
2023-02-11T18:31:31.515Z,20.55
2023-02-11T18:33:58.846Z,20.33
2023-02-11T18:36:26.122Z,20.48
2023-02-11T18:38:54.373Z,20.35
2023-02-11T18:41:21.848Z,19.75
2023-02-11T18:43:49.272Z,19.45
2023-02-11T18:46:17.263Z,21.70
2023-02-11T18:48:45.450Z,19.75
2023-02-11T18:51:18.416Z,19.77
2023-02-11T18:53:46.315Z,21.38
2023-02-11T18:56:21.200Z,20.02
2023-02-11T18:58:49.233Z,21.05
2023-02-11T19:01:24.393Z,20.27
2023-02-11T19:03:52.005Z,19.15
2023-02-11T19:06:28.576Z,18.80
2023-02-11T19:09:00.101Z,20.40
2023-02-11T19:11:49.088Z,20.73
2023-02-11T19:14:29.335Z,28.55
2023-02-11T19:16:59.513Z,30.13
2023-02-11T19:19:30.331Z,22.45
2023-02-11T19:21:59.977Z,19.77
2023-02-11T19:24:29.239Z,20.13
2023-02-11T19:27:00.378Z,22.38
2023-02-11T19:29:29.830Z,20.92
2023-02-11T19:31:57.220Z,20.80
2023-02-11T19:34:24.840Z,21.00
2023-02-11T19:36:53.430Z,21.08
2023-02-11T19:39:21.472Z,20.77
2023-02-11T19:41:48.791Z,19.75
2023-02-11T19:44:16.698Z,23.02
2023-02-11T19:46:44.614Z,21.02
2023-02-11T19:49:16.946Z,20.30
2023-02-11T19:51:44.382Z,21.15
2023-02-11T19:54:11.766Z,19.33
2023-02-11T19:56:39.062Z,19.25
2023-02-11T19:59:09.003Z,19.52
2023-02-11T20:01:37.152Z,21.10
2023-02-11T20:04:04.858Z,21.60
2023-02-11T20:06:34.501Z,21.15
2023-02-11T20:09:06.927Z,21.08
2023-02-11T20:11:35.206Z,20.55
2023-02-11T20:14:03.703Z,19.17
2023-02-11T20:16:47.046Z,20.25
2023-02-11T20:19:21.815Z,19.35
2023-02-11T20:21:52.652Z,20.77
2023-02-11T20:26:48.692Z,18.98
2023-02-11T20:29:17.945Z,19.05
2023-02-11T20:31:45.660Z,19.10
2023-02-11T20:34:13.084Z,20.42
2023-02-11T20:36:41.038Z,19.38
2023-02-11T20:39:10.595Z,18.73
2023-02-11T20:41:41.498Z,20.80
2023-02-11T20:44:10.984Z,19.33
2023-02-11T20:46:46.031Z,19.33
2023-02-11T20:49:19.433Z,18.35
2023-02-11T20:51:47.774Z,18.15
2023-02-11T20:54:18.564Z,17.90
2023-02-11T20:59:16.982Z,17.98
2023-02-11T21:01:53.494Z,17.85
2023-02-11T21:04:25.635Z,17.45
2023-02-11T21:06:56.880Z,16.77
2023-02-11T21:09:28.118Z,17.30
2023-02-11T21:11:55.568Z,19.00
2023-02-11T21:14:24.834Z,17.33
2023-02-11T21:16:53.346Z,16.38
2023-02-11T21:19:21.427Z,17.45
2023-02-11T21:21:49.273Z,19.08
2023-02-11T21:24:16.605Z,17.88
2023-02-11T21:26:44.013Z,18.55
2023-02-11T21:29:11.963Z,17.67
2023-02-11T21:31:40.123Z,17.50
2023-02-11T21:34:08.043Z,17.02
2023-02-11T21:36:35.441Z,17.75
2023-02-11T21:39:04.065Z,17.00
2023-02-11T21:41:31.669Z,17.48
2023-02-11T21:43:58.989Z,17.13
2023-02-11T21:46:27.403Z,17.75
2023-02-11T21:48:54.665Z,18.08
2023-02-11T21:51:26.498Z,15.70
2023-02-11T21:53:59.143Z,17.98
2023-02-11T21:56:28.347Z,17.50
2023-02-11T21:58:58.193Z,18.25
2023-02-11T22:01:30.280Z,17.98
2023-02-11T22:03:58.158Z,17.40
2023-02-11T22:06:31.124Z,16.80
2023-02-11T22:09:01.778Z,17.10
2023-02-11T22:11:29.167Z,16.55
2023-02-11T22:13:57.858Z,16.25
2023-02-11T22:16:27.016Z,15.85
2023-02-11T22:18:56.128Z,18.02
2023-02-11T22:21:23.591Z,16.60
2023-02-11T22:23:52.020Z,18.20
2023-02-11T22:26:22.713Z,17.90
2023-02-11T22:31:27.181Z,16.40
2023-02-11T22:33:55.398Z,18.60
2023-02-11T22:36:27.071Z,18.00
2023-02-11T22:38:55.606Z,19.48
2023-02-11T22:41:24.585Z,17.27
2023-02-11T22:43:51.922Z,18.05
2023-02-11T22:46:20.166Z,18.33
2023-02-11T22:48:48.476Z,19.33
2023-02-11T22:51:23.064Z,18.17
2023-02-11T22:54:02.291Z,18.17
2023-02-11T22:56:31.531Z,17.90
2023-02-11T22:59:01.534Z,18.35
2023-02-11T23:01:30.048Z,16.75
2023-02-11T23:03:58.692Z,16.40
2023-02-11T23:06:25.940Z,16.52
2023-02-11T23:08:53.515Z,16.30
2023-02-11T23:11:24.879Z,16.67
2023-02-11T23:13:53.520Z,18.05
2023-02-11T23:16:39.980Z,16.13
2023-02-11T23:19:09.078Z,17.77
2023-02-11T23:21:38.955Z,17.35
2023-02-11T23:24:12.101Z,17.85
2023-02-11T23:26:41.297Z,16.67
2023-02-11T23:29:17.278Z,16.75
2023-02-11T23:31:46.530Z,16.58
2023-02-11T23:34:23.898Z,17.95
2023-02-11T23:36:52.783Z,18.02
2023-02-11T23:39:20.577Z,18.08
2023-02-11T23:41:47.888Z,16.42
2023-02-11T23:44:15.128Z,16.73
2023-02-11T23:46:42.424Z,17.13
2023-02-11T23:49:09.961Z,18.73
2023-02-11T23:51:37.160Z,17.60
2023-02-11T23:54:04.421Z,17.55
2023-02-11T23:56:31.788Z,17.00
2023-02-11T23:58:59.485Z,18.42
